sensor_id;sensor_type;location;lat;lon;timestamp;temperature;humidity
6556;DHT22;3311;48.32423000;14.29074500;2022-09-21T05:55:18;15.00;65.10
6556;DHT22;3311;48.32423000;14.29074500;2022-09-21T05:57:52;15.00;65.60
6556;DHT22;3311;48.32423000;14.29074500;2022-09-21T06:00:22;15.00;65.60
6556;DHT22;3311;48.32423000;14.29074500;2022-09-21T06:03:03;15.00;65.50
6556;DHT22;3311;48.32423000;14.29074500;2022-09-21T06:05:36;15.10;65.60
6556;DHT22;3311;48.32423000;14.29074500;2022-09-21T06:08:03;15.20;65.70
6556;DHT22;3311;48.32423000;14.29074500;2022-09-21T06:10:33;15.20;65.50
6556;DHT22;3311;48.32423000;14.29074500;2022-09-21T06:13:00;15.20;65.20
6556;DHT22;3311;48.32423000;14.29074500;2022-09-21T06:15:28;15.10;65.50
6556;DHT22;3311;48.32423000;14.29074500;2022-09-21T06:17:56;15.10;65.90
6556;DHT22;3311;48.32423000;14.29074500;2022-09-21T06:20:24;15.10;66.20
6556;DHT22;3311;48.32423000;14.29074500;2022-09-21T06:22:51;15.10;66.20
6556;DHT22;3311;48.32423000;14.29074500;2022-09-21T06:25:18;15.10;66.40
6556;DHT22;3311;48.32423000;14.29074500;2022-09-21T06:27:48;15.20;66.80
6556;DHT22;3311;48.32423000;14.29074500;2022-09-21T06:30:15;15.20;66.80
6556;DHT22;3311;48.32423000;14.29074500;2022-09-21T06:32:43;15.20;66.90
6556;DHT22;3311;48.32423000;14.29074500;2022-09-21T06:35:10;15.30;67.10
6556;DHT22;3311;48.32423000;14.29074500;2022-09-21T06:37:37;15.20;67.70
6556;DHT22;3311;48.32423000;14.29074500;2022-09-21T06:40:08;15.30;67.40
6556;DHT22;3311;48.32423000;14.29074500;2022-09-21T06:42:35;15.30;67.40
6556;DHT22;3311;48.32423000;14.29074500;2022-09-21T06:45:05;15.30;67.40
6556;DHT22;3311;48.32423000;14.29074500;2022-09-21T06:47:33;15.30;67.30
6556;DHT22;3311;48.32423000;14.29074500;2022-09-21T06:50:00;15.30;67.30
6556;DHT22;3311;48.32423000;14.29074500;2022-09-21T06:52:28;15.30;67.00
6556;DHT22;3311;48.32423000;14.29074500;2022-09-21T06:54:55;15.40;67.00
6556;DHT22;3311;48.32423000;14.29074500;2022-09-21T06:57:22;15.40;67.20
6556;DHT22;3311;48.32423000;14.29074500;2022-09-21T06:59:50;15.40;67.00
6556;DHT22;3311;48.32423000;14.29074500;2022-09-21T07:02:18;15.40;66.90
6556;DHT22;3311;48.32423000;14.29074500;2022-09-21T07:04:46;15.40;66.70
6556;DHT22;3311;48.32423000;14.29074500;2022-09-21T07:07:14;15.40;66.60
6556;DHT22;3311;48.32423000;14.29074500;2022-09-21T07:09:41;15.40;66.60
6556;DHT22;3311;48.32423000;14.29074500;2022-09-21T07:12:09;15.40;66.60
6556;DHT22;3311;48.32423000;14.29074500;2022-09-21T07:14:36;15.50;66.50
6556;DHT22;3311;48.32423000;14.29074500;2022-09-21T07:17:03;15.50;66.60
6556;DHT22;3311;48.32423000;14.29074500;2022-09-21T07:19:32;15.50;66.80
6556;DHT22;3311;48.32423000;14.29074500;2022-09-21T07:22:00;15.50;66.70
6556;DHT22;3311;48.32423000;14.29074500;2022-09-21T07:24:27;15.50;66.60
6556;DHT22;3311;48.32423000;14.29074500;2022-09-21T07:26:55;15.60;66.80
6556;DHT22;3311;48.32423000;14.29074500;2022-09-21T07:29:22;15.60;66.50
6556;DHT22;3311;48.32423000;14.29074500;2022-09-21T07:31:49;15.60;66.40
6556;DHT22;3311;48.32423000;14.29074500;2022-09-21T07:34:16;15.60;66.30
6556;DHT22;3311;48.32423000;14.29074500;2022-09-21T07:36:45;15.60;66.40
6556;DHT22;3311;48.32423000;14.29074500;2022-09-21T07:39:12;15.60;66.20
6556;DHT22;3311;48.32423000;14.29074500;2022-09-21T07:41:39;15.60;66.30
6556;DHT22;3311;48.32423000;14.29074500;2022-09-21T07:44:07;15.60;66.40
6556;DHT22;3311;48.32423000;14.29074500;2022-09-21T07:46:34;15.70;66.30
6556;DHT22;3311;48.32423000;14.29074500;2022-09-21T07:49:02;15.60;66.00
6556;DHT22;3311;48.32423000;14.29074500;2022-09-21T07:51:30;15.70;66.20
6556;DHT22;3311;48.32423000;14.29074500;2022-09-21T07:53:59;15.60;66.20
6556;DHT22;3311;48.32423000;14.29074500;2022-09-21T07:56:26;15.60;66.10
6556;DHT22;3311;48.32423000;14.29074500;2022-09-21T07:58:53;15.70;66.10
6556;DHT22;3311;48.32423000;14.29074500;2022-09-21T08:01:32;15.70;66.30
6556;DHT22;3311;48.32423000;14.29074500;2022-09-21T08:04:01;15.70;65.90
6556;DHT22;3311;48.32423000;14.29074500;2022-09-21T08:06:30;15.70;65.80
6556;DHT22;3311;48.32423000;14.29074500;2022-09-21T08:08:59;15.70;66.30
6556;DHT22;3311;48.32423000;14.29074500;2022-09-21T08:11:28;15.70;66.00
6556;DHT22;3311;48.32423000;14.29074500;2022-09-21T08:13:57;15.60;65.70
6556;DHT22;3311;48.32423000;14.29074500;2022-09-21T08:16:25;15.70;65.50
6556;DHT22;3311;48.32423000;14.29074500;2022-09-21T08:18:53;15.70;65.70
6556;DHT22;3311;48.32423000;14.29074500;2022-09-21T08:21:21;15.70;66.00
6556;DHT22;3311;48.32423000;14.29074500;2022-09-21T08:23:48;15.80;65.60
6556;DHT22;3311;48.32423000;14.29074500;2022-09-21T08:26:18;15.90;65.60
6556;DHT22;3311;48.32423000;14.29074500;2022-09-21T08:28:49;15.80;65.50
6556;DHT22;3311;48.32423000;14.29074500;2022-09-21T08:31:17;15.90;65.30
6556;DHT22;3311;48.32423000;14.29074500;2022-09-21T08:33:46;15.90;65.20
6556;DHT22;3311;48.32423000;14.29074500;2022-09-21T08:36:13;15.90;65.30
6556;DHT22;3311;48.32423000;14.29074500;2022-09-21T08:38:40;15.90;65.20
6556;DHT22;3311;48.32423000;14.29074500;2022-09-21T08:41:15;15.90;65.20
6556;DHT22;3311;48.32423000;14.29074500;2022-09-21T08:43:48;15.90;65.40
6556;DHT22;3311;48.32423000;14.29074500;2022-09-21T08:46:18;15.90;65.50
6556;DHT22;3311;48.32423000;14.29074500;2022-09-21T08:48:48;15.90;65.50
6556;DHT22;3311;48.32423000;14.29074500;2022-09-21T08:51:20;15.90;65.60
6556;DHT22;3311;48.32423000;14.29074500;2022-09-21T08:53:51;16.00;65.80
6556;DHT22;3311;48.32423000;14.29074500;2022-09-21T08:56:21;16.00;65.70
6556;DHT22;3311;48.32423000;14.29074500;2022-09-21T08:58:50;16.00;65.60
6556;DHT22;3311;48.32423000;14.29074500;2022-09-21T09:01:34;16.00;65.40
6556;DHT22;3311;48.32423000;14.29074500;2022-09-21T09:04:18;16.10;65.50
6556;DHT22;3311;48.32423000;14.29074500;2022-09-21T09:06:54;16.00;65.20
6556;DHT22;3311;48.32423000;14.29074500;2022-09-21T09:09:43;16.00;65.20
6556;DHT22;3311;48.32423000;14.29074500;2022-09-21T09:12:30;16.00;65.10
6556;DHT22;3311;48.32423000;14.29074500;2022-09-21T09:15:40;16.10;65.00
6556;DHT22;3311;48.32423000;14.29074500;2022-09-21T09:18:17;16.10;65.40
6556;DHT22;3311;48.32423000;14.29074500;2022-09-21T09:20:53;16.00;65.50
6556;DHT22;3311;48.32423000;14.29074500;2022-09-21T09:23:24;16.10;65.60
6556;DHT22;3311;48.32423000;14.29074500;2022-09-21T09:25:57;16.10;65.90
6556;DHT22;3311;48.32423000;14.29074500;2022-09-21T09:28:31;16.10;65.90
6556;DHT22;3311;48.32423000;14.29074500;2022-09-21T09:31:05;16.00;65.70
6556;DHT22;3311;48.32423000;14.29074500;2022-09-21T09:33:47;16.10;65.90
6556;DHT22;3311;48.32423000;14.29074500;2022-09-21T09:36:18;16.10;65.80
6556;DHT22;3311;48.32423000;14.29074500;2022-09-21T09:38:51;16.10;65.60
6556;DHT22;3311;48.32423000;14.29074500;2022-09-21T09:41:48;16.10;65.60
6556;DHT22;3311;48.32423000;14.29074500;2022-09-21T09:44:35;16.20;65.90
6556;DHT22;3311;48.32423000;14.29074500;2022-09-21T09:47:14;16.20;65.60
6556;DHT22;3311;48.32423000;14.29074500;2022-09-21T09:49:55;16.20;65.40
6556;DHT22;3311;48.32423000;14.29074500;2022-09-21T09:52:25;16.30;65.40
6556;DHT22;3311;48.32423000;14.29074500;2022-09-21T09:54:52;16.30;65.30
6556;DHT22;3311;48.32423000;14.29074500;2022-09-21T09:57:26;16.30;65.10
6556;DHT22;3311;48.32423000;14.29074500;2022-09-21T09:59:57;16.30;65.00
6556;DHT22;3311;48.32423000;14.29074500;2022-09-21T10:02:27;16.30;64.80
6556;DHT22;3311;48.32423000;14.29074500;2022-09-21T10:04:57;16.30;65.00
6556;DHT22;3311;48.32423000;14.29074500;2022-09-21T10:07:35;16.30;64.90
6556;DHT22;3311;48.32423000;14.29074500;2022-09-21T10:13:10;16.30;65.00
6556;DHT22;3311;48.32423000;14.29074500;2022-09-21T10:15:44;16.30;65.10
6556;DHT22;3311;48.32423000;14.29074500;2022-09-21T10:18:23;16.40;65.10
6556;DHT22;3311;48.32423000;14.29074500;2022-09-21T10:21:02;16.50;64.90
6556;DHT22;3311;48.32423000;14.29074500;2022-09-21T10:23:31;16.50;65.10
6556;DHT22;3311;48.32423000;14.29074500;2022-09-21T10:26:02;16.50;65.10
6556;DHT22;3311;48.32423000;14.29074500;2022-09-21T10:28:31;16.50;65.60
6556;DHT22;3311;48.32423000;14.29074500;2022-09-21T10:31:11;16.50;65.20
6556;DHT22;3311;48.32423000;14.29074500;2022-09-21T10:33:51;16.60;65.20
6556;DHT22;3311;48.32423000;14.29074500;2022-09-21T10:36:26;16.60;64.90
6556;DHT22;3311;48.32423000;14.29074500;2022-09-21T10:38:54;16.60;65.00
6556;DHT22;3311;48.32423000;14.29074500;2022-09-21T10:41:21;16.60;65.10
6556;DHT22;3311;48.32423000;14.29074500;2022-09-21T10:43:49;16.70;65.00
6556;DHT22;3311;48.32423000;14.29074500;2022-09-21T10:46:32;16.70;65.10
6556;DHT22;3311;48.32423000;14.29074500;2022-09-21T10:49:02;16.70;65.30
6556;DHT22;3311;48.32423000;14.29074500;2022-09-21T10:51:30;16.70;65.20
6556;DHT22;3311;48.32423000;14.29074500;2022-09-21T10:53:59;16.70;65.30
6556;DHT22;3311;48.32423000;14.29074500;2022-09-21T10:56:26;16.70;64.80
6556;DHT22;3311;48.32423000;14.29074500;2022-09-21T10:59:12;16.70;64.90
6556;DHT22;3311;48.32423000;14.29074500;2022-09-21T11:01:47;16.70;64.80
6556;DHT22;3311;48.32423000;14.29074500;2022-09-21T11:04:22;16.70;64.80
6556;DHT22;3311;48.32423000;14.29074500;2022-09-21T11:06:53;16.70;64.50
6556;DHT22;3311;48.32423000;14.29074500;2022-09-21T11:09:27;16.70;64.50
6556;DHT22;3311;48.32423000;14.29074500;2022-09-21T11:12:00;16.70;64.60
6556;DHT22;3311;48.32423000;14.29074500;2022-09-21T11:14:41;16.70;64.30
6556;DHT22;3311;48.32423000;14.29074500;2022-09-21T11:17:18;16.70;64.70
6556;DHT22;3311;48.32423000;14.29074500;2022-09-21T11:19:52;16.80;64.30
6556;DHT22;3311;48.32423000;14.29074500;2022-09-21T11:22:26;16.70;64.00
6556;DHT22;3311;48.32423000;14.29074500;2022-09-21T11:25:04;16.70;64.30
6556;DHT22;3311;48.32423000;14.29074500;2022-09-21T11:27:39;16.80;64.30
6556;DHT22;3311;48.32423000;14.29074500;2022-09-21T11:30:11;16.80;64.20
6556;DHT22;3311;48.32423000;14.29074500;2022-09-21T11:32:55;16.80;64.10
6556;DHT22;3311;48.32423000;14.29074500;2022-09-21T11:35:49;16.90;64.00
6556;DHT22;3311;48.32423000;14.29074500;2022-09-21T11:38:29;16.90;64.00
6556;DHT22;3311;48.32423000;14.29074500;2022-09-21T11:41:07;16.80;63.70
6556;DHT22;3311;48.32423000;14.29074500;2022-09-21T11:44:00;16.90;64.10
6556;DHT22;3311;48.32423000;14.29074500;2022-09-21T11:46:39;16.90;64.20
6556;DHT22;3311;48.32423000;14.29074500;2022-09-21T11:52:18;17.00;64.00
6556;DHT22;3311;48.32423000;14.29074500;2022-09-21T11:55:14;17.00;63.80
6556;DHT22;3311;48.32423000;14.29074500;2022-09-21T11:57:48;17.00;64.00
6556;DHT22;3311;48.32423000;14.29074500;2022-09-21T12:00:21;17.00;63.80
6556;DHT22;3311;48.32423000;14.29074500;2022-09-21T12:03:20;17.00;64.10
6556;DHT22;3311;48.32423000;14.29074500;2022-09-21T12:06:03;17.00;63.80
6556;DHT22;3311;48.32423000;14.29074500;2022-09-21T12:08:58;17.00;63.80
6556;DHT22;3311;48.32423000;14.29074500;2022-09-21T12:11:36;16.90;63.60
6556;DHT22;3311;48.32423000;14.29074500;2022-09-21T12:14:15;16.90;63.70
6556;DHT22;3311;48.32423000;14.29074500;2022-09-21T12:16:51;17.00;64.00
6556;DHT22;3311;48.32423000;14.29074500;2022-09-21T12:19:28;16.90;64.00
6556;DHT22;3311;48.32423000;14.29074500;2022-09-21T12:22:03;16.90;64.20
6556;DHT22;3311;48.32423000;14.29074500;2022-09-21T12:24:36;16.90;64.10
6556;DHT22;3311;48.32423000;14.29074500;2022-09-21T12:27:12;16.90;64.20
6556;DHT22;3311;48.32423000;14.29074500;2022-09-21T12:29:46;17.00;64.20
6556;DHT22;3311;48.32423000;14.29074500;2022-09-21T12:32:21;17.00;64.20
6556;DHT22;3311;48.32423000;14.29074500;2022-09-21T12:34:53;17.00;64.20
6556;DHT22;3311;48.32423000;14.29074500;2022-09-21T12:37:28;17.00;64.30
6556;DHT22;3311;48.32423000;14.29074500;2022-09-21T12:40:04;17.00;64.30
6556;DHT22;3311;48.32423000;14.29074500;2022-09-21T12:42:37;17.00;64.60
6556;DHT22;3311;48.32423000;14.29074500;2022-09-21T12:45:13;17.00;64.30
6556;DHT22;3311;48.32423000;14.29074500;2022-09-21T12:47:51;17.00;64.30
6556;DHT22;3311;48.32423000;14.29074500;2022-09-21T12:50:24;17.00;64.40
6556;DHT22;3311;48.32423000;14.29074500;2022-09-21T12:52:54;17.00;64.30
6556;DHT22;3311;48.32423000;14.29074500;2022-09-21T12:55:44;17.00;64.60
6556;DHT22;3311;48.32423000;14.29074500;2022-09-21T12:58:33;17.00;64.60
6556;DHT22;3311;48.32423000;14.29074500;2022-09-21T13:01:14;17.00;64.30
6556;DHT22;3311;48.32423000;14.29074500;2022-09-21T13:03:51;17.00;64.30
6556;DHT22;3311;48.32423000;14.29074500;2022-09-21T13:07:00;17.00;64.10
6556;DHT22;3311;48.32423000;14.29074500;2022-09-21T13:09:38;17.00;64.10
6556;DHT22;3311;48.32423000;14.29074500;2022-09-21T13:12:13;17.00;64.10
6556;DHT22;3311;48.32423000;14.29074500;2022-09-21T13:14:44;17.10;64.30
6556;DHT22;3311;48.32423000;14.29074500;2022-09-21T13:17:19;17.10;64.70
6556;DHT22;3311;48.32423000;14.29074500;2022-09-21T13:19:56;17.20;64.80
6556;DHT22;3311;48.32423000;14.29074500;2022-09-21T13:22:28;16.10;64.70
6556;DHT22;3311;48.32423000;14.29074500;2022-09-21T13:25:05;17.00;65.40
6556;DHT22;3311;48.32423000;14.29074500;2022-09-21T13:28:01;17.10;64.70
6556;DHT22;3311;48.32423000;14.29074500;2022-09-21T13:30:37;17.10;64.90
6556;DHT22;3311;48.32423000;14.29074500;2022-09-21T13:33:36;17.20;64.70
6556;DHT22;3311;48.32423000;14.29074500;2022-09-21T13:36:29;17.20;64.20
6556;DHT22;3311;48.32423000;14.29074500;2022-09-21T13:39:18;16.90;63.80
6556;DHT22;3311;48.32423000;14.29074500;2022-09-21T13:41:45;16.70;64.70
6556;DHT22;3311;48.32423000;14.29074500;2022-09-21T13:44:33;16.80;65.20
6556;DHT22;3311;48.32423000;14.29074500;2022-09-21T13:47:03;17.00;64.40
6556;DHT22;3311;48.32423000;14.29074500;2022-09-21T13:49:45;17.10;64.00
6556;DHT22;3311;48.32423000;14.29074500;2022-09-21T13:52:36;17.10;63.40
6556;DHT22;3311;48.32423000;14.29074500;2022-09-21T13:55:19;17.10;63.20
6556;DHT22;3311;48.32423000;14.29074500;2022-09-21T13:57:49;17.20;63.00
6556;DHT22;3311;48.32423000;14.29074500;2022-09-21T14:00:35;17.20;62.80
6556;DHT22;3311;48.32423000;14.29074500;2022-09-21T14:03:16;17.20;62.70
6556;DHT22;3311;48.32423000;14.29074500;2022-09-21T14:05:46;17.20;62.70
6556;DHT22;3311;48.32423000;14.29074500;2022-09-21T14:08:21;17.20;62.90
6556;DHT22;3311;48.32423000;14.29074500;2022-09-21T14:10:53;17.20;63.10
6556;DHT22;3311;48.32423000;14.29074500;2022-09-21T14:13:29;17.20;63.20
6556;DHT22;3311;48.32423000;14.29074500;2022-09-21T14:19:01;17.20;62.70
6556;DHT22;3311;48.32423000;14.29074500;2022-09-21T14:21:29;17.20;62.80
6556;DHT22;3311;48.32423000;14.29074500;2022-09-21T14:27:04;17.00;62.90
6556;DHT22;3311;48.32423000;14.29074500;2022-09-21T14:29:43;17.00;63.20
6556;DHT22;3311;48.32423000;14.29074500;2022-09-21T14:32:16;17.00;62.70
6556;DHT22;3311;48.32423000;14.29074500;2022-09-21T14:34:48;17.10;63.10
6556;DHT22;3311;48.32423000;14.29074500;2022-09-21T14:37:28;17.10;63.30
6556;DHT22;3311;48.32423000;14.29074500;2022-09-21T14:39:58;17.20;63.00
6556;DHT22;3311;48.32423000;14.29074500;2022-09-21T14:42:27;17.20;63.00
6556;DHT22;3311;48.32423000;14.29074500;2022-09-21T14:44:58;17.30;63.40
6556;DHT22;3311;48.32423000;14.29074500;2022-09-21T14:47:51;17.30;63.10
6556;DHT22;3311;48.32423000;14.29074500;2022-09-21T14:50:33;17.30;63.00
6556;DHT22;3311;48.32423000;14.29074500;2022-09-21T14:56:34;17.30;64.00
6556;DHT22;3311;48.32423000;14.29074500;2022-09-21T14:59:18;17.40;62.00
6556;DHT22;3311;48.32423000;14.29074500;2022-09-21T15:01:58;17.40;60.70
6556;DHT22;3311;48.32423000;14.29074500;2022-09-21T15:04:38;17.40;60.10
6556;DHT22;3311;48.32423000;14.29074500;2022-09-21T15:07:19;17.40;59.70
6556;DHT22;3311;48.32423000;14.29074500;2022-09-21T15:10:20;17.40;60.00
6556;DHT22;3311;48.32423000;14.29074500;2022-09-21T15:13:14;17.40;58.30
6556;DHT22;3311;48.32423000;14.29074500;2022-09-21T15:15:57;17.40;57.00
6556;DHT22;3311;48.32423000;14.29074500;2022-09-21T15:18:26;17.30;56.40
6556;DHT22;3311;48.32423000;14.29074500;2022-09-21T15:20:56;17.30;56.50
6556;DHT22;3311;48.32423000;14.29074500;2022-09-21T15:23:29;17.30;56.90
6556;DHT22;3311;48.32423000;14.29074500;2022-09-21T15:26:01;17.30;56.70
6556;DHT22;3311;48.32423000;14.29074500;2022-09-21T15:28:36;17.40;57.00
6556;DHT22;3311;48.32423000;14.29074500;2022-09-21T15:31:04;17.40;56.90
6556;DHT22;3311;48.32423000;14.29074500;2022-09-21T15:33:36;17.30;56.90
6556;DHT22;3311;48.32423000;14.29074500;2022-09-21T15:36:05;17.30;56.40
6556;DHT22;3311;48.32423000;14.29074500;2022-09-21T15:38:36;17.30;56.20
6556;DHT22;3311;48.32423000;14.29074500;2022-09-21T15:41:04;17.30;56.60
6556;DHT22;3311;48.32423000;14.29074500;2022-09-21T15:43:32;17.30;56.80
6556;DHT22;3311;48.32423000;14.29074500;2022-09-21T15:46:01;17.30;57.50
6556;DHT22;3311;48.32423000;14.29074500;2022-09-21T15:48:31;17.30;57.70
6556;DHT22;3311;48.32423000;14.29074500;2022-09-21T15:51:02;17.30;57.70
6556;DHT22;3311;48.32423000;14.29074500;2022-09-21T15:53:39;17.30;57.40
6556;DHT22;3311;48.32423000;14.29074500;2022-09-21T15:56:19;17.30;57.70
6556;DHT22;3311;48.32423000;14.29074500;2022-09-21T15:58:47;17.20;57.80
6556;DHT22;3311;48.32423000;14.29074500;2022-09-21T16:01:18;17.10;58.20
6556;DHT22;3311;48.32423000;14.29074500;2022-09-21T16:03:49;17.10;58.40
6556;DHT22;3311;48.32423000;14.29074500;2022-09-21T16:06:35;17.10;58.50
6556;DHT22;3311;48.32423000;14.29074500;2022-09-21T16:09:33;17.10;58.50
6556;DHT22;3311;48.32423000;14.29074500;2022-09-21T16:12:31;17.10;58.50
6556;DHT22;3311;48.32423000;14.29074500;2022-09-21T16:15:00;17.10;58.50
6556;DHT22;3311;48.32423000;14.29074500;2022-09-21T16:17:35;17.10;58.30
6556;DHT22;3311;48.32423000;14.29074500;2022-09-21T16:20:05;17.10;58.00
6556;DHT22;3311;48.32423000;14.29074500;2022-09-21T16:22:38;17.10;57.90
6556;DHT22;3311;48.32423000;14.29074500;2022-09-21T16:25:27;17.10;57.80
6556;DHT22;3311;48.32423000;14.29074500;2022-09-21T16:27:59;17.10;58.00
6556;DHT22;3311;48.32423000;14.29074500;2022-09-21T16:30:45;17.00;58.10
6556;DHT22;3311;48.32423000;14.29074500;2022-09-21T16:33:40;16.80;58.60
6556;DHT22;3311;48.32423000;14.29074500;2022-09-21T16:36:37;16.70;58.90
6556;DHT22;3311;48.32423000;14.29074500;2022-09-21T16:39:09;16.70;59.40
6556;DHT22;3311;48.32423000;14.29074500;2022-09-21T16:41:39;16.60;59.10
6556;DHT22;3311;48.32423000;14.29074500;2022-09-21T16:44:13;16.60;59.70
6556;DHT22;3311;48.32423000;14.29074500;2022-09-21T16:46:46;16.50;60.20
6556;DHT22;3311;48.32423000;14.29074500;2022-09-21T16:49:17;16.40;60.80
6556;DHT22;3311;48.32423000;14.29074500;2022-09-21T16:51:48;16.40;61.00
6556;DHT22;3311;48.32423000;14.29074500;2022-09-21T16:54:17;16.40;61.40
6556;DHT22;3311;48.32423000;14.29074500;2022-09-21T16:56:54;16.40;61.30
6556;DHT22;3311;48.32423000;14.29074500;2022-09-21T16:59:23;16.50;61.10
6556;DHT22;3311;48.32423000;14.29074500;2022-09-21T17:01:52;16.40;60.80
6556;DHT22;3311;48.32423000;14.29074500;2022-09-21T17:04:25;16.40;61.70
6556;DHT22;3311;48.32423000;14.29074500;2022-09-21T17:06:54;16.30;62.20
6556;DHT22;3311;48.32423000;14.29074500;2022-09-21T17:09:26;16.30;61.60
6556;DHT22;3311;48.32423000;14.29074500;2022-09-21T17:11:55;16.30;61.70
6556;DHT22;3311;48.32423000;14.29074500;2022-09-21T17:14:25;16.30;61.90
6556;DHT22;3311;48.32423000;14.29074500;2022-09-21T17:16:55;16.40;62.10
6556;DHT22;3311;48.32423000;14.29074500;2022-09-21T17:19:23;16.30;62.20
6556;DHT22;3311;48.32423000;14.29074500;2022-09-21T17:21:50;16.30;62.60
6556;DHT22;3311;48.32423000;14.29074500;2022-09-21T17:24:18;16.20;62.50
6556;DHT22;3311;48.32423000;14.29074500;2022-09-21T17:26:45;16.20;63.00
6556;DHT22;3311;48.32423000;14.29074500;2022-09-21T17:29:20;16.20;63.20
6556;DHT22;3311;48.32423000;14.29074500;2022-09-21T17:31:49;16.20;63.30
6556;DHT22;3311;48.32423000;14.29074500;2022-09-21T17:34:21;16.20;63.30
6556;DHT22;3311;48.32423000;14.29074500;2022-09-21T17:36:51;16.20;63.10
6556;DHT22;3311;48.32423000;14.29074500;2022-09-21T17:39:20;16.20;63.40
6556;DHT22;3311;48.32423000;14.29074500;2022-09-21T17:41:53;16.10;63.40
6556;DHT22;3311;48.32423000;14.29074500;2022-09-21T17:44:41;16.00;63.90
6556;DHT22;3311;48.32423000;14.29074500;2022-09-21T17:47:17;15.90;64.30
6556;DHT22;3311;48.32423000;14.29074500;2022-09-21T17:49:47;15.80;64.40
6556;DHT22;3311;48.32423000;14.29074500;2022-09-21T17:52:18;15.90;64.40
6556;DHT22;3311;48.32423000;14.29074500;2022-09-21T17:55:04;15.80;64.20
6556;DHT22;3311;48.32423000;14.29074500;2022-09-21T17:57:56;15.90;64.10
6556;DHT22;3311;48.32423000;14.29074500;2022-09-21T18:00:58;15.90;63.20
6556;DHT22;3311;48.32423000;14.29074500;2022-09-21T18:03:58;15.90;63.30
6556;DHT22;3311;48.32423000;14.29074500;2022-09-21T18:06:29;15.80;63.80
6556;DHT22;3311;48.32423000;14.29074500;2022-09-21T18:08:58;15.70;64.00
6556;DHT22;3311;48.32423000;14.29074500;2022-09-21T18:11:53;15.70;64.20
6556;DHT22;3311;48.32423000;14.29074500;2022-09-21T18:14:33;15.60;64.40
6556;DHT22;3311;48.32423000;14.29074500;2022-09-21T18:17:18;15.50;64.20
6556;DHT22;3311;48.32423000;14.29074500;2022-09-21T18:19:59;15.50;64.50
6556;DHT22;3311;48.32423000;14.29074500;2022-09-21T18:22:35;15.50;64.20
6556;DHT22;3311;48.32423000;14.29074500;2022-09-21T18:25:10;15.50;64.30
6556;DHT22;3311;48.32423000;14.29074500;2022-09-21T18:27:40;15.40;63.90
6556;DHT22;3311;48.32423000;14.29074500;2022-09-21T18:30:11;15.40;64.10
6556;DHT22;3311;48.32423000;14.29074500;2022-09-21T18:32:51;15.40;64.10
6556;DHT22;3311;48.32423000;14.29074500;2022-09-21T18:35:36;15.40;63.70
6556;DHT22;3311;48.32423000;14.29074500;2022-09-21T18:38:18;15.40;64.10
6556;DHT22;3311;48.32423000;14.29074500;2022-09-21T18:41:01;15.40;64.30
6556;DHT22;3311;48.32423000;14.29074500;2022-09-21T18:43:47;15.50;63.80
6556;DHT22;3311;48.32423000;14.29074500;2022-09-21T18:46:20;15.40;63.80
6556;DHT22;3311;48.32423000;14.29074500;2022-09-21T18:49:00;15.30;64.00
6556;DHT22;3311;48.32423000;14.29074500;2022-09-21T18:51:34;15.20;64.20
6556;DHT22;3311;48.32423000;14.29074500;2022-09-21T18:54:12;15.20;64.50
6556;DHT22;3311;48.32423000;14.29074500;2022-09-21T18:56:46;15.10;64.30
6556;DHT22;3311;48.32423000;14.29074500;2022-09-21T18:59:15;15.10;64.40
6556;DHT22;3311;48.32423000;14.29074500;2022-09-21T19:01:44;15.10;64.50
6556;DHT22;3311;48.32423000;14.29074500;2022-09-21T19:04:17;15.00;64.40
6556;DHT22;3311;48.32423000;14.29074500;2022-09-21T19:06:52;15.00;64.20
6556;DHT22;3311;48.32423000;14.29074500;2022-09-21T19:09:30;15.00;64.00
6556;DHT22;3311;48.32423000;14.29074500;2022-09-21T19:12:13;15.10;63.90
6556;DHT22;3311;48.32423000;14.29074500;2022-09-21T19:14:53;15.10;63.50
6556;DHT22;3311;48.32423000;14.29074500;2022-09-21T19:17:34;15.10;63.50
6556;DHT22;3311;48.32423000;14.29074500;2022-09-21T19:20:21;15.00;63.70
6556;DHT22;3311;48.32423000;14.29074500;2022-09-21T19:23:00;15.10;63.80
6556;DHT22;3311;48.32423000;14.29074500;2022-09-21T19:25:37;15.00;63.70
6556;DHT22;3311;48.32423000;14.29074500;2022-09-21T19:31:00;14.90;63.80
6556;DHT22;3311;48.32423000;14.29074500;2022-09-21T19:33:30;14.90;64.10
6556;DHT22;3311;48.32423000;14.29074500;2022-09-21T19:36:01;15.00;64.10
6556;DHT22;3311;48.32423000;14.29074500;2022-09-21T19:38:30;14.90;64.00
6556;DHT22;3311;48.32423000;14.29074500;2022-09-21T19:41:28;14.90;64.00
6556;DHT22;3311;48.32423000;14.29074500;2022-09-21T19:44:04;14.90;64.40
6556;DHT22;3311;48.32423000;14.29074500;2022-09-21T19:46:38;14.80;64.40
6556;DHT22;3311;48.32423000;14.29074500;2022-09-21T19:49:12;14.80;64.60
6556;DHT22;3311;48.32423000;14.29074500;2022-09-21T19:51:47;14.70;64.60
6556;DHT22;3311;48.32423000;14.29074500;2022-09-21T19:54:17;14.70;64.60
6556;DHT22;3311;48.32423000;14.29074500;2022-09-21T19:57:10;14.70;64.70
6556;DHT22;3311;48.32423000;14.29074500;2022-09-21T19:59:57;14.70;64.60
6556;DHT22;3311;48.32423000;14.29074500;2022-09-21T20:02:28;14.80;64.90
6556;DHT22;3311;48.32423000;14.29074500;2022-09-21T20:05:02;15.00;64.60
6556;DHT22;3311;48.32423000;14.29074500;2022-09-21T20:07:39;15.10;64.30
6556;DHT22;3311;48.32423000;14.29074500;2022-09-21T20:10:47;15.20;63.90
6556;DHT22;3311;48.32423000;14.29074500;2022-09-21T20:13:23;15.20;63.20
6556;DHT22;3311;48.32423000;14.29074500;2022-09-21T20:16:00;15.10;63.30
6556;DHT22;3311;48.32423000;14.29074500;2022-09-21T20:18:39;15.10;63.20
6556;DHT22;3311;48.32423000;14.29074500;2022-09-21T20:21:13;15.00;63.30
6556;DHT22;3311;48.32423000;14.29074500;2022-09-21T20:23:48;15.00;63.30
6556;DHT22;3311;48.32423000;14.29074500;2022-09-21T20:26:23;14.90;63.50
6556;DHT22;3311;48.32423000;14.29074500;2022-09-21T20:28:52;14.90;63.50
6556;DHT22;3311;48.32423000;14.29074500;2022-09-21T20:31:21;14.90;63.40